createdAt,value
2022-12-01T00:00:35.184Z,0.13
2022-12-01T00:03:22.217Z,0.11
2022-12-01T00:06:15.645Z,0.07
2022-12-01T00:09:20.727Z,0.13
2022-12-01T00:12:07.432Z,0.19
2022-12-01T00:15:00.900Z,0.22
2022-12-01T00:17:48.532Z,0.26
2022-12-01T00:20:34.797Z,0.27
2022-12-01T00:23:22.052Z,0.27
2022-12-01T00:26:08.452Z,0.28
2022-12-01T00:28:56.999Z,0.27
2022-12-01T00:31:43.404Z,0.24
2022-12-01T00:34:29.993Z,0.15
2022-12-01T00:37:16.412Z,0.07
2022-12-01T00:40:04.143Z,0.05
2022-12-01T00:42:51.247Z,0.12
2022-12-01T00:45:37.950Z,0.18
2022-12-01T00:48:24.574Z,0.18
2022-12-01T00:51:11.297Z,0.19
2022-12-01T00:53:58.194Z,0.15
2022-12-01T00:56:44.904Z,0.04
2022-12-01T00:59:31.513Z,0.04
2022-12-01T01:02:18.162Z,0.02
2022-12-01T01:05:05.424Z,-0.04
2022-12-01T01:07:52.292Z,-0.06
2022-12-01T01:10:43.260Z,-0.01
2022-12-01T01:13:29.765Z,0.03
2022-12-01T01:16:20.708Z,0.06
2022-12-01T01:19:07.380Z,0.05
2022-12-01T01:21:53.694Z,0.02
2022-12-01T01:24:40.287Z,-0.03
2022-12-01T01:27:26.887Z,-0.06
2022-12-01T01:30:13.783Z,-0.15
2022-12-01T01:33:00.611Z,-0.19
2022-12-01T01:35:47.320Z,-0.21
2022-12-01T01:38:33.794Z,-0.18
2022-12-01T01:41:20.939Z,-0.18
2022-12-01T01:44:45.762Z,-0.18
2022-12-01T01:47:36.222Z,-0.19
2022-12-01T01:50:24.593Z,-0.20
2022-12-01T01:53:13.032Z,-0.19
2022-12-01T01:55:59.536Z,-0.19
2022-12-01T01:58:45.779Z,-0.20
2022-12-01T02:01:32.800Z,-0.21
2022-12-01T02:04:19.869Z,-0.17
2022-12-01T02:07:07.679Z,-0.13
2022-12-01T02:09:54.196Z,-0.13
2022-12-01T02:12:49.790Z,-0.11
2022-12-01T02:15:37.246Z,-0.14
2022-12-01T02:18:36.139Z,-0.22
2022-12-01T02:21:41.276Z,-0.24
2022-12-01T02:24:49.589Z,-0.20
2022-12-01T02:27:53.909Z,-0.23
2022-12-01T02:31:03.892Z,-0.24
2022-12-01T02:33:56.077Z,-0.24
2022-12-01T02:36:47.526Z,-0.21
2022-12-01T02:39:46.013Z,-0.20
2022-12-01T02:43:11.921Z,-0.20
2022-12-01T02:46:21.410Z,-0.16
2022-12-01T02:49:14.181Z,-0.14
2022-12-01T02:52:00.919Z,-0.11
2022-12-01T02:54:48.457Z,-0.06
2022-12-01T02:57:35.377Z,-0.03
2022-12-01T03:00:21.629Z,-0.05
2022-12-01T03:03:35.230Z,-0.04
2022-12-01T03:06:36.756Z,-0.10
2022-12-01T03:09:47.065Z,-0.10
2022-12-01T03:12:58.926Z,-0.11
2022-12-01T03:16:00.988Z,-0.09
2022-12-01T03:18:53.880Z,-0.06
2022-12-01T03:21:43.013Z,-0.05
2022-12-01T03:24:31.804Z,-0.06
2022-12-01T03:27:19.614Z,-0.07
2022-12-01T03:30:10.340Z,-0.10
2022-12-01T03:33:01.258Z,-0.10
2022-12-01T03:36:00.124Z,-0.10
2022-12-01T03:38:49.168Z,-0.11
2022-12-01T03:41:41.679Z,-0.09
2022-12-01T03:44:34.176Z,-0.07
2022-12-01T03:47:25.290Z,-0.06
2022-12-01T03:50:14.205Z,-0.06
2022-12-01T03:53:13.248Z,-0.03
2022-12-01T03:56:02.802Z,0.06
2022-12-01T03:58:49.304Z,0.17
2022-12-01T04:01:36.085Z,0.26
2022-12-01T04:04:23.027Z,0.30
2022-12-01T04:07:13.562Z,0.35
2022-12-01T04:09:59.921Z,0.38
2022-12-01T04:12:46.686Z,0.39
2022-12-01T04:15:33.444Z,0.40
2022-12-01T04:18:20.599Z,0.41
2022-12-01T04:21:07.207Z,0.38
2022-12-01T04:24:02.511Z,0.32
2022-12-01T04:26:49.181Z,0.27
2022-12-01T04:29:35.995Z,0.23
2022-12-01T04:32:22.600Z,0.20
2022-12-01T04:35:10.964Z,0.17
2022-12-01T04:37:57.249Z,0.14
2022-12-01T04:40:43.882Z,0.14
2022-12-01T04:43:30.870Z,0.12
2022-12-01T04:46:18.932Z,0.10
2022-12-01T04:49:05.313Z,0.08
2022-12-01T04:51:52.438Z,0.11
2022-12-01T04:54:38.913Z,0.19
2022-12-01T04:57:25.637Z,0.28
2022-12-01T05:00:13.446Z,0.38
2022-12-01T05:03:00.489Z,0.44
2022-12-01T05:05:46.915Z,0.49
2022-12-01T05:08:34.377Z,0.52
2022-12-01T05:11:20.691Z,0.52
2022-12-01T05:14:07.628Z,0.51
2022-12-01T05:16:55.324Z,0.48
2022-12-01T05:20:00.738Z,0.45
2022-12-01T05:23:04.867Z,0.40
2022-12-01T05:25:52.758Z,0.37
2022-12-01T05:28:40.918Z,0.35
2022-12-01T05:31:27.894Z,0.31
2022-12-01T05:34:14.924Z,0.31
2022-12-01T05:37:01.433Z,0.30
2022-12-01T05:39:48.577Z,0.26
2022-12-01T05:42:35.259Z,0.27
2022-12-01T05:45:22.173Z,0.32
2022-12-01T05:48:09.088Z,0.42
2022-12-01T05:50:55.509Z,0.50
2022-12-01T05:53:42.099Z,0.55
2022-12-01T05:56:28.702Z,0.62
2022-12-01T05:59:15.505Z,0.62
2022-12-01T06:02:02.431Z,0.59
2022-12-01T06:04:49.843Z,0.56
2022-12-01T06:07:36.310Z,0.53
2022-12-01T06:10:22.749Z,0.52
2022-12-01T06:13:09.357Z,0.52
2022-12-01T06:15:59.497Z,0.52
2022-12-01T06:18:46.456Z,0.51
2022-12-01T06:21:33.233Z,0.49
2022-12-01T06:24:20.081Z,0.45
2022-12-01T06:27:06.513Z,0.42
2022-12-01T06:29:53.384Z,0.42
2022-12-01T06:32:39.932Z,0.42
2022-12-01T06:35:26.224Z,0.41
2022-12-01T06:38:13.209Z,0.39
2022-12-01T06:41:00.409Z,0.38
2022-12-01T06:43:46.981Z,0.43
2022-12-01T06:46:33.385Z,0.52
2022-12-01T06:49:20.505Z,0.62
2022-12-01T06:52:07.035Z,0.74
2022-12-01T06:54:53.860Z,0.80
2022-12-01T06:57:41.088Z,0.84
2022-12-01T07:00:27.578Z,0.87
2022-12-01T07:03:14.516Z,0.87
2022-12-01T07:06:01.644Z,0.92
2022-12-01T07:08:48.263Z,0.95
2022-12-01T07:11:36.586Z,0.93
2022-12-01T07:14:24.468Z,0.89
2022-12-01T07:17:11.175Z,0.82
2022-12-01T07:19:58.211Z,0.80
2022-12-01T07:22:45.043Z,0.81
2022-12-01T07:25:32.044Z,0.82
2022-12-01T07:28:18.360Z,0.83
2022-12-01T07:31:09.367Z,0.83
2022-12-01T07:33:55.983Z,0.82
2022-12-01T07:36:42.581Z,0.84
2022-12-01T07:39:29.341Z,0.86
2022-12-01T07:42:16.201Z,0.93
2022-12-01T07:45:03.026Z,1.02
2022-12-01T07:47:53.306Z,1.10
2022-12-01T07:50:40.118Z,1.22
2022-12-01T07:53:26.929Z,1.30
2022-12-01T07:56:13.842Z,1.39
2022-12-01T07:59:00.247Z,1.45
2022-12-01T08:01:46.686Z,1.53
2022-12-01T08:04:33.246Z,1.53
2022-12-01T08:07:19.927Z,1.52
2022-12-01T08:10:06.737Z,1.48
2022-12-01T08:12:53.476Z,1.49
2022-12-01T08:15:39.840Z,1.48
2022-12-01T08:18:26.565Z,1.51
2022-12-01T08:21:15.030Z,1.55
2022-12-01T08:24:01.522Z,1.60
2022-12-01T08:26:48.054Z,1.65
2022-12-01T08:29:35.672Z,1.71
2022-12-01T08:32:22.098Z,1.76
2022-12-01T08:35:09.291Z,1.77
2022-12-01T08:37:55.894Z,1.82
2022-12-01T08:40:42.200Z,1.86
2022-12-01T08:43:56.104Z,1.96
2022-12-01T08:46:36.226Z,2.06
2022-12-01T08:49:23.112Z,2.12
2022-12-01T08:52:09.464Z,2.13
2022-12-01T08:54:56.029Z,2.14
2022-12-01T08:57:42.822Z,2.15
2022-12-01T09:00:29.540Z,2.12
2022-12-01T09:03:16.075Z,2.10
2022-12-01T09:06:10.771Z,2.11
2022-12-01T09:09:00.305Z,2.06
2022-12-01T09:11:47.424Z,2.04
2022-12-01T09:14:40.190Z,2.02
2022-12-01T09:17:26.967Z,2.05
2022-12-01T09:20:13.777Z,2.03
2022-12-01T09:23:00.587Z,2.02
2022-12-01T09:25:48.131Z,2.01
2022-12-01T09:28:35.352Z,2.02
2022-12-01T09:31:23.745Z,2.08
2022-12-01T09:34:13.884Z,2.16
2022-12-01T09:37:00.716Z,2.24
2022-12-01T09:39:47.772Z,2.25
2022-12-01T09:42:35.683Z,2.30
2022-12-01T09:45:27.063Z,2.32
2022-12-01T09:48:28.007Z,2.30
2022-12-01T09:51:21.071Z,2.28
2022-12-01T09:54:08.603Z,2.30
2022-12-01T09:56:55.493Z,2.30
2022-12-01T09:59:43.587Z,2.22
2022-12-01T10:02:39.554Z,2.28
2022-12-01T10:05:29.747Z,2.35
2022-12-01T10:08:22.491Z,2.37
2022-12-01T10:11:27.038Z,2.40
2022-12-01T10:14:20.046Z,2.41
2022-12-01T10:17:32.407Z,2.45
2022-12-01T10:20:24.403Z,2.51
2022-12-01T10:23:32.943Z,2.55
2022-12-01T10:26:38.401Z,2.60
2022-12-01T10:29:28.858Z,2.61
2022-12-01T10:32:20.010Z,2.57
2022-12-01T10:35:11.080Z,2.55
2022-12-01T10:38:00.368Z,2.57
2022-12-01T10:40:47.075Z,2.54
2022-12-01T10:43:44.634Z,2.51
2022-12-01T10:46:45.094Z,2.51
2022-12-01T10:49:36.823Z,2.52
2022-12-01T10:52:39.750Z,2.56
2022-12-01T10:55:32.047Z,2.60
2022-12-01T10:58:19.277Z,2.66
2022-12-01T11:01:05.956Z,2.76
2022-12-01T11:03:59.586Z,2.79
2022-12-01T11:06:48.774Z,2.79
2022-12-01T11:09:35.374Z,2.80
2022-12-01T11:12:22.539Z,2.81
2022-12-01T11:15:18.441Z,2.78
2022-12-01T11:18:25.343Z,2.73
2022-12-01T11:21:14.204Z,2.70
2022-12-01T11:24:01.218Z,2.69
2022-12-01T11:26:48.008Z,2.67
2022-12-01T11:29:36.285Z,2.63
2022-12-01T11:32:30.533Z,2.63
2022-12-01T11:35:19.725Z,2.63
2022-12-01T11:38:28.757Z,2.64
2022-12-01T11:41:28.721Z,2.64
2022-12-01T11:47:27.790Z,2.73
2022-12-01T11:50:25.731Z,2.77
2022-12-01T11:53:27.107Z,2.78
2022-12-01T11:56:24.432Z,2.78
2022-12-01T11:59:24.698Z,2.76
2022-12-01T12:02:23.217Z,2.72
2022-12-01T12:05:34.718Z,2.68
2022-12-01T12:08:50.628Z,2.73
2022-12-01T12:11:44.594Z,2.74
2022-12-01T12:14:56.949Z,2.76
2022-12-01T12:17:43.427Z,2.76
2022-12-01T12:20:49.122Z,2.74
2022-12-01T12:23:41.141Z,2.69
2022-12-01T12:26:39.358Z,2.62
2022-12-01T12:29:52.177Z,2.55
2022-12-01T12:32:44.679Z,2.55
2022-12-01T12:35:45.828Z,2.51
2022-12-01T12:38:50.968Z,2.52
2022-12-01T12:41:48.742Z,2.56
2022-12-01T12:44:48.278Z,2.56
2022-12-01T12:47:42.334Z,2.57
2022-12-01T12:50:50.948Z,2.52
2022-12-01T12:53:45.506Z,2.50
2022-12-01T12:56:32.135Z,2.48
2022-12-01T12:59:25.343Z,2.49
2022-12-01T13:02:31.202Z,2.48
2022-12-01T13:05:24.018Z,2.46
2022-12-01T13:08:17.335Z,2.42
2022-12-01T13:11:24.875Z,2.43
2022-12-01T13:14:25.206Z,2.44
2022-12-01T13:17:14.622Z,2.47
2022-12-01T13:20:01.661Z,2.49
2022-12-01T13:22:48.212Z,2.50
2022-12-01T13:25:38.493Z,2.50
2022-12-01T13:28:41.005Z,2.44
2022-12-01T13:31:27.398Z,2.41
2022-12-01T13:34:29.943Z,2.36
2022-12-01T13:37:16.387Z,2.32
2022-12-01T13:40:16.534Z,2.31
2022-12-01T13:43:10.538Z,2.34
2022-12-01T13:45:57.739Z,2.36
2022-12-01T13:48:47.096Z,2.37
2022-12-01T13:52:21.579Z,2.34
2022-12-01T13:55:08.375Z,2.34
2022-12-01T13:57:58.267Z,2.29
2022-12-01T14:00:45.477Z,2.28
2022-12-01T14:03:33.686Z,2.25
2022-12-01T14:06:28.089Z,2.24
2022-12-01T14:09:24.155Z,2.28
2022-12-01T14:12:10.962Z,2.31
2022-12-01T14:15:00.270Z,2.35
2022-12-01T14:17:46.989Z,2.40
2022-12-01T14:20:43.665Z,2.42
2022-12-01T14:23:37.194Z,2.38
2022-12-01T14:26:24.033Z,2.33
2022-12-01T14:29:43.273Z,2.30
2022-12-01T14:32:29.748Z,2.25
2022-12-01T14:35:16.290Z,2.20
2022-12-01T14:38:03.121Z,2.20
2022-12-01T14:40:49.406Z,2.24
2022-12-01T14:43:54.850Z,2.24
2022-12-01T14:46:54.567Z,2.24
2022-12-01T14:49:44.168Z,2.24
2022-12-01T14:52:35.970Z,2.24
2022-12-01T14:55:33.230Z,2.22
2022-12-01T14:58:30.459Z,2.19
2022-12-01T15:01:17.263Z,2.18
2022-12-01T15:04:05.455Z,2.18
2022-12-01T15:06:56.350Z,2.16
2022-12-01T15:09:59.203Z,2.13
2022-12-01T15:12:46.454Z,2.16
2022-12-01T15:15:33.037Z,2.22
2022-12-01T15:18:31.394Z,2.26
2022-12-01T15:21:28.952Z,2.28
2022-12-01T15:24:24.238Z,2.30
2022-12-01T15:27:28.243Z,2.31
2022-12-01T15:30:15.367Z,2.30
2022-12-01T15:33:01.796Z,2.27
2022-12-01T15:35:49.449Z,2.25
2022-12-01T15:38:36.821Z,2.23
2022-12-01T15:41:30.829Z,2.20
2022-12-01T15:44:27.957Z,2.17
2022-12-01T15:47:46.202Z,2.18
2022-12-01T15:50:42.903Z,2.20
2022-12-01T15:53:34.523Z,2.27
2022-12-01T15:56:32.242Z,2.31
2022-12-01T15:59:35.425Z,2.33
2022-12-01T16:02:30.469Z,2.35
2022-12-01T16:05:18.921Z,2.32
2022-12-01T16:08:19.322Z,2.30
2022-12-01T16:11:12.834Z,2.28
2022-12-01T16:14:24.981Z,2.26
2022-12-01T16:17:11.441Z,2.25
2022-12-01T16:20:26.557Z,2.25
2022-12-01T16:23:19.054Z,2.21
2022-12-01T16:26:07.880Z,2.22
2022-12-01T16:28:55.383Z,2.26
2022-12-01T16:31:58.672Z,2.30
2022-12-01T16:34:50.202Z,2.35
2022-12-01T16:37:36.710Z,2.37
2022-12-01T16:40:23.514Z,2.38
2022-12-01T16:43:29.002Z,2.38
2022-12-01T16:46:15.793Z,2.36
2022-12-01T16:49:02.585Z,2.33
2022-12-01T16:51:55.946Z,2.32
2022-12-01T16:54:43.421Z,2.27
2022-12-01T16:57:30.170Z,2.24
2022-12-01T17:00:17.717Z,2.21
2022-12-01T17:03:05.132Z,2.18
2022-12-01T17:05:52.422Z,2.20
2022-12-01T17:08:39.270Z,2.22
2022-12-01T17:11:26.079Z,2.27
2022-12-01T17:14:12.887Z,2.30
2022-12-01T17:16:59.701Z,2.33
2022-12-01T17:19:46.223Z,2.33
2022-12-01T17:22:33.335Z,2.33
2022-12-01T17:25:20.241Z,2.31
2022-12-01T17:28:06.807Z,2.28
2022-12-01T17:30:53.703Z,2.26
2022-12-01T17:33:40.690Z,2.22
2022-12-01T17:36:27.044Z,2.20
2022-12-01T17:39:13.553Z,2.21
2022-12-01T17:42:00.097Z,2.25
2022-12-01T17:44:46.933Z,2.27
2022-12-01T17:47:33.651Z,2.28
2022-12-01T17:50:20.114Z,2.26
2022-12-01T17:53:07.127Z,2.26
2022-12-01T17:55:53.914Z,2.25
2022-12-01T17:58:41.150Z,2.23
2022-12-01T18:01:30.379Z,2.22
2022-12-01T18:04:17.433Z,2.19
2022-12-01T18:07:03.913Z,2.17
2022-12-01T18:09:50.699Z,2.19
2022-12-01T18:12:37.557Z,2.23
2022-12-01T18:15:27.326Z,2.25
2022-12-01T18:18:17.223Z,2.29
2022-12-01T18:21:07.821Z,2.31
2022-12-01T18:23:57.123Z,2.31
2022-12-01T18:26:57.725Z,2.29
2022-12-01T18:29:44.210Z,2.29
2022-12-01T18:32:31.139Z,2.25
2022-12-01T18:35:17.749Z,2.21
2022-12-01T18:38:04.454Z,2.20
2022-12-01T18:40:50.856Z,2.20
2022-12-01T18:43:37.559Z,2.22
2022-12-01T18:46:24.115Z,2.24
2022-12-01T18:49:11.082Z,2.24
2022-12-01T18:51:59.945Z,2.23
2022-12-01T18:54:46.762Z,2.24
2022-12-01T18:57:33.361Z,2.23
2022-12-01T19:00:21.093Z,2.19
2022-12-01T19:03:07.896Z,2.15
2022-12-01T19:05:54.482Z,2.16
2022-12-01T19:08:41.244Z,2.19
2022-12-01T19:11:28.831Z,2.20
2022-12-01T19:14:17.457Z,2.21
2022-12-01T19:17:04.417Z,2.18
2022-12-01T19:19:51.226Z,2.16
2022-12-01T19:22:38.342Z,2.13
2022-12-01T19:25:25.053Z,2.11
2022-12-01T19:28:11.883Z,2.11
2022-12-01T19:30:58.863Z,2.07
2022-12-01T19:33:46.321Z,2.02
2022-12-01T19:36:32.730Z,2.02
2022-12-01T19:39:20.134Z,2.07
2022-12-01T19:42:07.014Z,2.12
2022-12-01T19:44:53.423Z,2.14
2022-12-01T19:47:39.893Z,2.14
2022-12-01T19:50:26.356Z,2.14
2022-12-01T19:53:13.130Z,2.14
2022-12-01T19:56:04.197Z,2.14
2022-12-01T19:58:50.888Z,2.11
2022-12-01T20:01:37.767Z,2.08
2022-12-01T20:04:24.904Z,2.04
2022-12-01T20:07:11.269Z,2.03
2022-12-01T20:09:57.912Z,2.04
2022-12-01T20:12:44.779Z,2.08
2022-12-01T20:15:33.534Z,2.10
2022-12-01T20:18:19.884Z,2.12
2022-12-01T20:21:08.885Z,2.12
2022-12-01T20:24:00.376Z,2.09
2022-12-01T20:26:52.095Z,2.04
2022-12-01T20:29:39.274Z,1.97
2022-12-01T20:32:26.565Z,1.96
2022-12-01T20:35:13.853Z,1.97
2022-12-01T20:38:00.358Z,1.98
2022-12-01T20:40:50.112Z,1.95
2022-12-01T20:43:37.076Z,1.96
2022-12-01T20:46:23.805Z,1.96
2022-12-01T20:49:10.770Z,1.93
2022-12-01T20:51:57.589Z,1.87
2022-12-01T20:54:44.909Z,1.84
2022-12-01T20:57:31.616Z,1.78
2022-12-01T21:00:18.945Z,1.74
2022-12-01T21:03:05.458Z,1.71
2022-12-01T21:05:51.945Z,1.70
2022-12-01T21:08:39.633Z,1.73
2022-12-01T21:12:05.706Z,1.76
2022-12-01T21:15:14.446Z,1.79
2022-12-01T21:18:04.823Z,1.80
2022-12-01T21:20:55.232Z,1.82
2022-12-01T21:23:41.931Z,1.80
2022-12-01T21:26:28.843Z,1.78
2022-12-01T21:29:25.292Z,1.76
2022-12-01T21:32:14.833Z,1.75
2022-12-01T21:35:08.644Z,1.75
2022-12-01T21:38:00.600Z,1.72
2022-12-01T21:40:47.579Z,1.70
2022-12-01T21:43:38.286Z,1.67
2022-12-01T21:46:25.556Z,1.67
2022-12-01T21:49:22.017Z,1.70
2022-12-01T21:52:38.109Z,1.75
2022-12-01T21:55:24.561Z,1.77
2022-12-01T21:58:24.765Z,1.76
2022-12-01T22:01:20.904Z,1.73
2022-12-01T22:04:16.915Z,1.69
2022-12-01T22:07:05.098Z,1.68
2022-12-01T22:09:51.570Z,1.64
2022-12-01T22:12:38.167Z,1.61
2022-12-01T22:15:45.175Z,1.59
2022-12-01T22:18:38.310Z,1.63
2022-12-01T22:21:27.169Z,1.67
2022-12-01T22:24:23.914Z,1.68
2022-12-01T22:27:26.336Z,1.71
2022-12-01T22:30:20.693Z,1.72
2022-12-01T22:33:14.570Z,1.67
2022-12-01T22:36:01.159Z,1.63
2022-12-01T22:38:47.899Z,1.60
2022-12-01T22:41:34.431Z,1.59
2022-12-01T22:44:21.140Z,1.56
2022-12-01T22:47:08.610Z,1.53
2022-12-01T22:49:55.623Z,1.54
2022-12-01T22:52:42.121Z,1.56
2022-12-01T22:55:28.938Z,1.59
2022-12-01T22:58:29.230Z,1.60
2022-12-01T23:01:37.252Z,1.59
2022-12-01T23:04:34.527Z,1.59
2022-12-01T23:07:28.880Z,1.55
2022-12-01T23:10:17.569Z,1.53
2022-12-01T23:13:15.471Z,1.52
2022-12-01T23:16:02.397Z,1.50
2022-12-01T23:18:49.022Z,1.48
2022-12-01T23:21:36.126Z,1.46
2022-12-01T23:24:22.916Z,1.48
2022-12-01T23:27:09.597Z,1.51
2022-12-01T23:29:56.509Z,1.50
2022-12-01T23:32:56.331Z,1.54
2022-12-01T23:36:15.084Z,1.58
2022-12-01T23:39:02.918Z,1.56
2022-12-01T23:41:50.345Z,1.53
2022-12-01T23:44:42.172Z,1.51
2022-12-01T23:47:28.979Z,1.45
2022-12-01T23:50:21.215Z,1.40
2022-12-01T23:53:40.006Z,1.37
2022-12-01T23:56:27.886Z,1.38
2022-12-01T23:59:14.575Z,1.42
